Climatologie pour Saint-Brevin les Pins
Jour • Résumé pour janvier 04, 2018 Système :  Mixte    Anglais   Métrique
« - 1 jour
+ 1 jour »
Jour Semaine Mois Année Personnalisé
  Maximum : Minimum : Moyenne :
Température sous abri : 55.6 °F /  13.1 °C 50.4 °F /  10.2 °C 53.4 °F /  11.9 °C
Point de rosée : 54.3 °F /  12.4 °C 49.3 °F /  9.6 °C 52.5 °F /  11.4 °C
Humidité : 98 % 94 % 97 %
Vitesse du vent : 32 mph /  51.5 km/h - 10.1 mph /  16.2 km/h
Rafale : 33 mph /  53.1 km/h - -
Direction :- - West
Pression : 29.9 in /  1011.1 hPa 29.7 in /  1005.3 hPa -
Précipitations : 0.1 in /  2.5 mm    
Historical Graphs
 
 
Tableau de données pour janvier 04, 2018
Heure Tempé Pt rosée Pression Vent Vitesse Rafale Humidité Taux pluie (/hr) Soleil
00:00 54.5 °F /  12.5 °C 54 °F /  12.2 °C 29.9 in /  1011.1 hPa NW 7 mph /  11.3 km/h 28 mph /  45.1 km/h 98 % 0 in /  0.0 mm 0 W/m2
00:10 54.5 °F /  12.5 °C 54 °F /  12.2 °C 29.9 in /  1011.1 hPa WSW 7 mph /  11.3 km/h 24 mph /  38.6 km/h 98 % 0.01 in /  0.3 mm 0 W/m2
00:15 54.5 °F /  12.5 °C 54 °F /  12.2 °C 29.9 in /  1011.1 hPa West 19 mph /  30.6 km/h 24 mph /  38.6 km/h 98 % 0.01 in /  0.3 mm 0 W/m2
00:25 54.5 °F /  12.5 °C 53.6 °F /  12.0 °C 29.8 in /  1010.7 hPa WNW 16 mph /  25.7 km/h 24 mph /  38.6 km/h 97 % 0.01 in /  0.3 mm 0 W/m2
00:30 54.5 °F /  12.5 °C 54 °F /  12.2 °C 29.8 in /  1010.7 hPa WNW 10 mph /  16.1 km/h 24 mph /  38.6 km/h 98 % 0.01 in /  0.3 mm 0 W/m2
00:40 54.5 °F /  12.5 °C 54 °F /  12.2 °C 29.8 in /  1010.7 hPa NW 18 mph /  29.0 km/h 31 mph /  49.9 km/h 98 % 0.01 in /  0.3 mm 0 W/m2
00:45 54.5 °F /  12.5 °C 53.6 °F /  12.0 °C 29.8 in /  1010.7 hPa WSW 18 mph /  29.0 km/h 31 mph /  49.9 km/h 97 % 0.01 in /  0.3 mm 0 W/m2
00:50 54.7 °F /  12.6 °C 53.8 °F /  12.1 °C 29.8 in /  1010.7 hPa WNW 8 mph /  12.9 km/h 26 mph /  41.8 km/h 97 % 0.01 in /  0.3 mm 0 W/m2
00:55 54.7 °F /  12.6 °C 54 °F /  12.2 °C 29.8 in /  1010.7 hPa WNW 8 mph /  12.9 km/h 25 mph /  40.2 km/h 98 % 0.01 in /  0.3 mm 0 W/m2
01:00 54.7 °F /  12.6 °C 53.8 °F /  12.1 °C 29.8 in /  1010.7 hPa West 13 mph /  20.9 km/h 23 mph /  37.0 km/h 97 % 0.01 in /  0.3 mm 0 W/m2
01:05 54.5 °F /  12.5 °C 53.6 °F /  12.0 °C 29.8 in /  1010.7 hPa WNW 9 mph /  14.5 km/h 26 mph /  41.8 km/h 97 % 0.01 in /  0.3 mm 0 W/m2
01:10 54.5 °F /  12.5 °C 53.6 °F /  12.0 °C 29.8 in /  1010.7 hPa WNW 5 mph /  8.0 km/h 26 mph /  41.8 km/h 97 % 0 in /  0.0 mm 0 W/m2
01:15 54.5 °F /  12.5 °C 53.6 °F /  12.0 °C 29.8 in /  1010.7 hPa WNW 18 mph /  29.0 km/h 26 mph /  41.8 km/h 97 % 0 in /  0.0 mm 0 W/m2
01:20 54.5 °F /  12.5 °C 53.6 °F /  12.0 °C 29.8 in /  1010.7 hPa WNW 15 mph /  24.1 km/h 26 mph /  41.8 km/h 97 % 0 in /  0.0 mm 0 W/m2
01:25 54.5 °F /  12.5 °C 53.6 °F /  12.0 °C 29.8 in /  1010.7 hPa NW 7 mph /  11.3 km/h 26 mph /  41.8 km/h 97 % 0 in /  0.0 mm 0 W/m2
01:30 54.5 °F /  12.5 °C 53.6 °F /  12.0 °C 29.8 in /  1010.7 hPa NW 10 mph /  16.1 km/h 28 mph /  45.1 km/h 97 % 0 in /  0.0 mm 0 W/m2
01:35 54.5 °F /  12.5 °C 53.6 °F /  12.0 °C 29.8 in /  1010.7 hPa NW 12 mph /  19.3 km/h 33 mph /  53.1 km/h 97 % 0 in /  0.0 mm 0 W/m2
01:45 54.5 °F /  12.5 °C 53.6 °F /  12.0 °C 29.8 in /  1010.7 hPa West 15 mph /  24.1 km/h 30 mph /  48.3 km/h 97 % 0 in /  0.0 mm 0 W/m2
01:50 54.3 °F /  12.4 °C 53.6 °F /  12.0 °C 29.8 in /  1010.7 hPa NW 12 mph /  19.3 km/h 30 mph /  48.3 km/h 97 % 0 in /  0.0 mm 0 W/m2
02:00 54.3 °F /  12.4 °C 53.6 °F /  12.0 °C 29.8 in /  1010.7 hPa WSW 15 mph /  24.1 km/h 24 mph /  38.6 km/h 97 % 0 in /  0.0 mm 0 W/m2
02:05 54.3 °F /  12.4 °C 53.6 °F /  12.0 °C 29.8 in /  1010.7 hPa WNW 12 mph /  19.3 km/h 26 mph /  41.8 km/h 97 % 0 in /  0.0 mm 0 W/m2
02:10 54.3 °F /  12.4 °C 53.6 °F /  12.0 °C 29.8 in /  1010.7 hPa West 16 mph /  25.7 km/h 26 mph /  41.8 km/h 97 % 0 in /  0.0 mm 0 W/m2
02:20 54.3 °F /  12.4 °C 53.6 °F /  12.0 °C 29.8 in /  1010.7 hPa WNW 12 mph /  19.3 km/h 24 mph /  38.6 km/h 97 % 0 in /  0.0 mm 0 W/m2
02:25 54.3 °F /  12.4 °C 53.6 °F /  12.0 °C 29.8 in /  1010.7 hPa NNW 13 mph /  20.9 km/h 26 mph /  41.8 km/h 97 % 0 in /  0.0 mm 0 W/m2
02:30 54.3 °F /  12.4 °C 53.8 °F /  12.1 °C 29.8 in /  1010.7 hPa WNW 20 mph /  32.2 km/h 27 mph /  43.4 km/h 98 % 0 in /  0.0 mm 0 W/m2
02:35 54.3 °F /  12.4 °C 53.8 °F /  12.1 °C 29.8 in /  1010.7 hPa WNW 7 mph /  11.3 km/h 27 mph /  43.4 km/h 98 % 0 in /  0.0 mm 0 W/m2
02:40 54.3 °F /  12.4 °C 53.6 °F /  12.0 °C 29.8 in /  1010.7 hPa West 20 mph /  32.2 km/h 23 mph /  37.0 km/h 97 % 0 in /  0.0 mm 0 W/m2
02:45 54.3 °F /  12.4 °C 53.4 °F /  11.9 °C 29.8 in /  1010.7 hPa WSW 5 mph /  8.0 km/h 22 mph /  35.4 km/h 97 % 0 in /  0.0 mm 0 W/m2
02:50 54.3 °F /  12.4 °C 53.8 °F /  12.1 °C 29.8 in /  1010.7 hPa NW 15 mph /  24.1 km/h 25 mph /  40.2 km/h 98 % 0 in /  0.0 mm 0 W/m2
03:00 54.3 °F /  12.4 °C 53.8 °F /  12.1 °C 29.8 in /  1010.7 hPa NW 9 mph /  14.5 km/h 24 mph /  38.6 km/h 98 % 0 in /  0.0 mm 0 W/m2
03:10 54.3 °F /  12.4 °C 53.8 °F /  12.1 °C 29.8 in /  1010.7 hPa NW 10 mph /  16.1 km/h 28 mph /  45.1 km/h 98 % 0 in /  0.0 mm 0 W/m2
03:20 54.3 °F /  12.4 °C 53.8 °F /  12.1 °C 29.9 in /  1011.1 hPa SW 4 mph /  6.4 km/h 25 mph /  40.2 km/h 98 % 0 in /  0.0 mm 0 W/m2
03:25 54.3 °F /  12.4 °C 53.8 °F /  12.1 °C 29.8 in /  1010.7 hPa WSW 20 mph /  32.2 km/h 26 mph /  41.8 km/h 98 % 0 in /  0.0 mm 0 W/m2
03:30 54.3 °F /  12.4 °C 53.8 °F /  12.1 °C 29.9 in /  1011.1 hPa West 13 mph /  20.9 km/h 26 mph /  41.8 km/h 98 % 0 in /  0.0 mm 0 W/m2
03:35 54.3 °F /  12.4 °C 53.8 °F /  12.1 °C 29.9 in /  1011.1 hPa WNW 13 mph /  20.9 km/h 26 mph /  41.8 km/h 98 % 0 in /  0.0 mm 0 W/m2
03:40 54.3 °F /  12.4 °C 53.8 °F /  12.1 °C 29.9 in /  1011.1 hPa West 10 mph /  16.1 km/h 26 mph /  41.8 km/h 98 % 0 in /  0.0 mm 0 W/m2
03:50 54.3 °F /  12.4 °C 53.8 °F /  12.1 °C 29.9 in /  1011.1 hPa West 17 mph /  27.4 km/h 27 mph /  43.4 km/h 98 % 0 in /  0.0 mm 0 W/m2
04:00 54.1 °F /  12.3 °C 53.6 °F /  12.0 °C 29.8 in /  1010.7 hPa WNW 9 mph /  14.5 km/h 25 mph /  40.2 km/h 98 % 0 in /  0.0 mm 0 W/m2
04:05 54.1 °F /  12.3 °C 53.6 °F /  12.0 °C 29.9 in /  1011.1 hPa WNW 22 mph /  35.4 km/h 25 mph /  40.2 km/h 98 % 0 in /  0.0 mm 0 W/m2
04:10 54.1 °F /  12.3 °C 53.6 °F /  12.0 °C 29.8 in /  1010.7 hPa West 32 mph /  51.5 km/h 32 mph /  51.5 km/h 98 % 0 in /  0.0 mm 0 W/m2
04:20 54.1 °F /  12.3 °C 53.6 °F /  12.0 °C 29.8 in /  1010.7 hPa SW 6 mph /  9.7 km/h 28 mph /  45.1 km/h 98 % 0 in /  0.0 mm 0 W/m2
04:25 54.1 °F /  12.3 °C 53.6 °F /  12.0 °C 29.8 in /  1010.7 hPa NW 7 mph /  11.3 km/h 24 mph /  38.6 km/h 98 % 0 in /  0.0 mm 0 W/m2
04:30 54.1 °F /  12.3 °C 53.6 °F /  12.0 °C 29.8 in /  1010.7 hPa WNW 14 mph /  22.5 km/h 24 mph /  38.6 km/h 98 % 0 in /  0.0 mm 0 W/m2
04:35 54.1 °F /  12.3 °C 53.6 °F /  12.0 °C 29.8 in /  1010.7 hPa West 15 mph /  24.1 km/h 25 mph /  40.2 km/h 98 % 0 in /  0.0 mm 0 W/m2
04:40 54 °F /  12.2 °C 53.4 °F /  11.9 °C 29.8 in /  1010.7 hPa West 10 mph /  16.1 km/h 25 mph /  40.2 km/h 98 % 0 in /  0.0 mm 0 W/m2
04:50 54 °F /  12.2 °C 53.4 °F /  11.9 °C 29.8 in /  1010.7 hPa WSW 13 mph /  20.9 km/h 24 mph /  38.6 km/h 98 % 0 in /  0.0 mm 0 W/m2
05:05 54 °F /  12.2 °C 53.4 °F /  11.9 °C 29.8 in /  1010.7 hPa WNW 6 mph /  9.7 km/h 28 mph /  45.1 km/h 98 % 0 in /  0.0 mm 0 W/m2
05:15 54 °F /  12.2 °C 53.4 °F /  11.9 °C 29.8 in /  1010.7 hPa West 15 mph /  24.1 km/h 25 mph /  40.2 km/h 98 % 0 in /  0.0 mm 0 W/m2
05:35 54 °F /  12.2 °C 53.4 °F /  11.9 °C 29.8 in /  1010.7 hPa NNW 6 mph /  9.7 km/h 24 mph /  38.6 km/h 98 % 0 in /  0.0 mm 0 W/m2
05:50 54 °F /  12.2 °C 53.4 °F /  11.9 °C 29.8 in /  1010.7 hPa WNW 9 mph /  14.5 km/h 27 mph /  43.4 km/h 98 % 0 in /  0.0 mm 0 W/m2
05:55 54 °F /  12.2 °C 53.4 °F /  11.9 °C 29.8 in /  1010.7 hPa NW 10 mph /  16.1 km/h 27 mph /  43.4 km/h 98 % 0 in /  0.0 mm 0 W/m2
06:00 54 °F /  12.2 °C 53.4 °F /  11.9 °C 29.8 in /  1010.7 hPa WSW 8 mph /  12.9 km/h 21 mph /  33.8 km/h 98 % 0 in /  0.0 mm 0 W/m2
06:10 54 °F /  12.2 °C 53.4 °F /  11.9 °C 29.8 in /  1010.4 hPa WSW 6 mph /  9.7 km/h 19 mph /  30.6 km/h 98 % 0 in /  0.0 mm 0 W/m2
06:15 54 °F /  12.2 °C 53.1 °F /  11.7 °C 29.8 in /  1010.4 hPa West 20 mph /  32.2 km/h 21 mph /  33.8 km/h 97 % 0 in /  0.0 mm 0 W/m2
06:25 54 °F /  12.2 °C 53.1 °F /  11.7 °C 29.8 in /  1010.4 hPa WNW 9 mph /  14.5 km/h 20 mph /  32.2 km/h 97 % 0 in /  0.0 mm 0 W/m2
06:35 54 °F /  12.2 °C 53.1 °F /  11.7 °C 29.8 in /  1010.4 hPa WNW 15 mph /  24.1 km/h 20 mph /  32.2 km/h 97 % 0 in /  0.0 mm 0 W/m2
06:40 54 °F /  12.2 °C 53.1 °F /  11.7 °C 29.8 in /  1010.4 hPa West 8 mph /  12.9 km/h 20 mph /  32.2 km/h 97 % 0 in /  0.0 mm 0 W/m2
06:45 54 °F /  12.2 °C 53.1 °F /  11.7 °C 29.8 in /  1010.4 hPa West 11 mph /  17.7 km/h 19 mph /  30.6 km/h 97 % 0 in /  0.0 mm 0 W/m2
06:50 53.8 °F /  12.1 °C 52.9 °F /  11.6 °C 29.8 in /  1010.4 hPa West 11 mph /  17.7 km/h 19 mph /  30.6 km/h 97 % 0 in /  0.0 mm 0 W/m2
06:55 54 °F /  12.2 °C 53.1 °F /  11.7 °C 29.8 in /  1010.4 hPa WNW 8 mph /  12.9 km/h 29 mph /  46.7 km/h 97 % 0 in /  0.0 mm 0 W/m2
07:05 54 °F /  12.2 °C 53.2 °F /  11.8 °C 29.8 in /  1010.0 hPa SW 15 mph /  24.1 km/h 25 mph /  40.2 km/h 97 % 0.01 in /  0.3 mm 0 W/m2
07:10 54 °F /  12.2 °C 53.4 °F /  11.9 °C 29.8 in /  1010.4 hPa WNW 10 mph /  16.1 km/h 24 mph /  38.6 km/h 98 % 0.01 in /  0.3 mm 0 W/m2
07:15 54 °F /  12.2 °C 53.1 °F /  11.7 °C 29.8 in /  1010.4 hPa WNW 14 mph /  22.5 km/h 24 mph /  38.6 km/h 97 % 0.01 in /  0.3 mm 0 W/m2
07:20 54 °F /  12.2 °C 53.2 °F /  11.8 °C 29.8 in /  1010.0 hPa NW 9 mph /  14.5 km/h 24 mph /  38.6 km/h 97 % 0.01 in /  0.3 mm 0 W/m2
07:25 54 °F /  12.2 °C 53.4 °F /  11.9 °C 29.8 in /  1010.0 hPa WNW 10 mph /  16.1 km/h 22 mph /  35.4 km/h 98 % 0.01 in /  0.3 mm 0 W/m2
07:30 54 °F /  12.2 °C 53.4 °F /  11.9 °C 29.8 in /  1010.0 hPa WNW 8 mph /  12.9 km/h 22 mph /  35.4 km/h 98 % 0.01 in /  0.3 mm 0 W/m2
07:35 54 °F /  12.2 °C 53.4 °F /  11.9 °C 29.8 in /  1010.4 hPa WNW 13 mph /  20.9 km/h 24 mph /  38.6 km/h 98 % 0.01 in /  0.3 mm 0 W/m2
07:45 54 °F /  12.2 °C 53.2 °F /  11.8 °C 29.8 in /  1010.4 hPa SW 8 mph /  12.9 km/h 20 mph /  32.2 km/h 97 % 0.01 in /  0.3 mm 0 W/m2
07:50 54 °F /  12.2 °C 53.2 °F /  11.8 °C 29.8 in /  1010.4 hPa WSW 10 mph /  16.1 km/h 20 mph /  32.2 km/h 97 % 0.01 in /  0.3 mm 0 W/m2
07:55 54 °F /  12.2 °C 53.4 °F /  11.9 °C 29.8 in /  1010.0 hPa WSW 11 mph /  17.7 km/h 23 mph /  37.0 km/h 98 % 0.01 in /  0.3 mm 0 W/m2
08:00 54.1 °F /  12.3 °C 53.6 °F /  12.0 °C 29.8 in /  1010.0 hPa SW 16 mph /  25.7 km/h 27 mph /  43.4 km/h 98 % 0 in /  0.0 mm 0 W/m2
08:05 54 °F /  12.2 °C 53.2 °F /  11.8 °C 29.8 in /  1010.0 hPa WSW 15 mph /  24.1 km/h 27 mph /  43.4 km/h 97 % 0 in /  0.0 mm 0 W/m2
08:10 54 °F /  12.2 °C 53.2 °F /  11.8 °C 29.8 in /  1010.0 hPa WNW 15 mph /  24.1 km/h 25 mph /  40.2 km/h 97 % 0 in /  0.0 mm 0 W/m2
08:20 54 °F /  12.2 °C 53.4 °F /  11.9 °C 29.8 in /  1010.0 hPa WSW 7 mph /  11.3 km/h 22 mph /  35.4 km/h 98 % 0 in /  0.0 mm 0 W/m2
08:25 54.1 °F /  12.3 °C 53.6 °F /  12.0 °C 29.8 in /  1010.0 hPa West 12 mph /  19.3 km/h 21 mph /  33.8 km/h 98 % 0 in /  0.0 mm 0 W/m2
08:30 54.1 °F /  12.3 °C 53.2 °F /  11.8 °C 29.8 in /  1010.0 hPa West 8 mph /  12.9 km/h 22 mph /  35.4 km/h 97 % 0 in /  0.0 mm 0 W/m2
08:40 54 °F /  12.2 °C 53.4 °F /  11.9 °C 29.8 in /  1009.7 hPa SW 10 mph /  16.1 km/h 22 mph /  35.4 km/h 98 % 0 in /  0.0 mm 0 W/m2
08:45 54 °F /  12.2 °C 53.2 °F /  11.8 °C 29.8 in /  1009.7 hPa WNW 8 mph /  12.9 km/h 23 mph /  37.0 km/h 97 % 0 in /  0.0 mm 0 W/m2
08:55 54.1 °F /  12.3 °C 53.6 °F /  12.0 °C 29.8 in /  1009.4 hPa SW 14 mph /  22.5 km/h 23 mph /  37.0 km/h 98 % 0 in /  0.0 mm 0 W/m2
09:05 54.1 °F /  12.3 °C 53.6 °F /  12.0 °C 29.8 in /  1009.7 hPa SW 13 mph /  20.9 km/h 23 mph /  37.0 km/h 98 % 0 in /  0.0 mm 0 W/m2
09:10 54.1 °F /  12.3 °C 53.4 °F /  11.9 °C 29.8 in /  1009.4 hPa West 10 mph /  16.1 km/h 23 mph /  37.0 km/h 97 % 0 in /  0.0 mm 7 W/m2
09:15 54.1 °F /  12.3 °C 53.4 °F /  11.9 °C 29.8 in /  1009.4 hPa West 13 mph /  20.9 km/h 22 mph /  35.4 km/h 97 % 0 in /  0.0 mm 12 W/m2
09:35 54.1 °F /  12.3 °C 53.4 °F /  11.9 °C 29.8 in /  1009.4 hPa SSW 7 mph /  11.3 km/h 22 mph /  35.4 km/h 97 % 0 in /  0.0 mm 12 W/m2
09:40 54.1 °F /  12.3 °C 53.2 °F /  11.8 °C 29.8 in /  1009.4 hPa WSW 10 mph /  16.1 km/h 22 mph /  35.4 km/h 97 % 0 in /  0.0 mm 9 W/m2
09:45 54.1 °F /  12.3 °C 53.2 °F /  11.8 °C 29.8 in /  1009.4 hPa WNW 12 mph /  19.3 km/h 23 mph /  37.0 km/h 97 % 0 in /  0.0 mm 11 W/m2
09:50 54.1 °F /  12.3 °C 53.4 °F /  11.9 °C 29.8 in /  1009.4 hPa WNW 7 mph /  11.3 km/h 25 mph /  40.2 km/h 97 % 0 in /  0.0 mm 12 W/m2
10:00 54.1 °F /  12.3 °C 53.4 °F /  11.9 °C 29.8 in /  1009.4 hPa WSW 15 mph /  24.1 km/h 21 mph /  33.8 km/h 97 % 0 in /  0.0 mm 12 W/m2
10:05 54.1 °F /  12.3 °C 53.4 °F /  11.9 °C 29.8 in /  1009.4 hPa WSW 21 mph /  33.8 km/h 22 mph /  35.4 km/h 97 % 0.01 in /  0.3 mm 16 W/m2
10:10 54.3 °F /  12.4 °C 53.4 °F /  11.9 °C 29.8 in /  1009.4 hPa WSW 10 mph /  16.1 km/h 24 mph /  38.6 km/h 97 % 0.01 in /  0.3 mm 16 W/m2
10:20 54.3 °F /  12.4 °C 53.6 °F /  12.0 °C 29.8 in /  1009.4 hPa West 4 mph /  6.4 km/h 26 mph /  41.8 km/h 97 % 0.01 in /  0.3 mm 28 W/m2
10:25 54.3 °F /  12.4 °C 53.6 °F /  12.0 °C 29.8 in /  1009.4 hPa WNW 12 mph /  19.3 km/h 24 mph /  38.6 km/h 97 % 0.01 in /  0.3 mm 26 W/m2
10:35 54.5 °F /  12.5 °C 53.6 °F /  12.0 °C 29.8 in /  1009.4 hPa West 16 mph /  25.7 km/h 29 mph /  46.7 km/h 97 % 0.01 in /  0.3 mm 25 W/m2
10:40 54.5 °F /  12.5 °C 53.6 °F /  12.0 °C 29.8 in /  1009.4 hPa West 6 mph /  9.7 km/h 29 mph /  46.7 km/h 97 % 0.01 in /  0.3 mm 28 W/m2
10:45 54.5 °F /  12.5 °C 53.6 °F /  12.0 °C 29.8 in /  1009.4 hPa WNW 14 mph /  22.5 km/h 24 mph /  38.6 km/h 97 % 0.01 in /  0.3 mm 25 W/m2
11:00 54.7 °F /  12.6 °C 53.8 °F /  12.1 °C 29.8 in /  1009.0 hPa NW 11 mph /  17.7 km/h 21 mph /  33.8 km/h 97 % 0.01 in /  0.3 mm 33 W/m2
11:05 54.7 °F /  12.6 °C 53.8 °F /  12.1 °C 29.8 in /  1009.0 hPa WSW 12 mph /  19.3 km/h 26 mph /  41.8 km/h 97 % 0 in /  0.0 mm 30 W/m2
11:15 54.9 °F /  12.7 °C 54 °F /  12.2 °C 29.8 in /  1009.0 hPa NNW 15 mph /  24.1 km/h 28 mph /  45.1 km/h 97 % 0 in /  0.0 mm 42 W/m2
11:20 54.9 °F /  12.7 °C 54 °F /  12.2 °C 29.8 in /  1009.0 hPa WNW 20 mph /  32.2 km/h 28 mph /  45.1 km/h 97 % 0 in /  0.0 mm 51 W/m2
11:30 54.9 °F /  12.7 °C 54.1 °F /  12.3 °C 29.8 in /  1009.0 hPa WSW 12 mph /  19.3 km/h 24 mph /  38.6 km/h 97 % 0 in /  0.0 mm 40 W/m2
11:45 55 °F /  12.8 °C 54 °F /  12.2 °C 29.8 in /  1009.0 hPa WSW 11 mph /  17.7 km/h 28 mph /  45.1 km/h 96 % 0 in /  0.0 mm 33 W/m2
11:50 55 °F /  12.8 °C 54 °F /  12.2 °C 29.8 in /  1009.0 hPa WSW 21 mph /  33.8 km/h 23 mph /  37.0 km/h 96 % 0 in /  0.0 mm 30 W/m2
12:05 55 °F /  12.8 °C 54 °F /  12.2 °C 29.8 in /  1008.7 hPa West 9 mph /  14.5 km/h 22 mph /  35.4 km/h 96 % 0 in /  0.0 mm 40 W/m2
12:10 55 °F /  12.8 °C 54 °F /  12.2 °C 29.8 in /  1008.7 hPa WSW 16 mph /  25.7 km/h 24 mph /  38.6 km/h 96 % 0 in /  0.0 mm 44 W/m2
12:20 55.2 °F /  12.9 °C 54.1 °F /  12.3 °C 29.8 in /  1008.7 hPa West 9 mph /  14.5 km/h 26 mph /  41.8 km/h 96 % 0 in /  0.0 mm 67 W/m2
12:35 55.4 °F /  13.0 °C 54.3 °F /  12.4 °C 29.8 in /  1008.4 hPa West 14 mph /  22.5 km/h 27 mph /  43.4 km/h 96 % 0 in /  0.0 mm 56 W/m2
12:40 55.6 °F /  13.1 °C 54.1 °F /  12.3 °C 29.8 in /  1008.4 hPa SW 9 mph /  14.5 km/h 24 mph /  38.6 km/h 95 % 0 in /  0.0 mm 62 W/m2
12:45 55.6 °F /  13.1 °C 54.1 °F /  12.3 °C 29.8 in /  1008.4 hPa West 11 mph /  17.7 km/h 25 mph /  40.2 km/h 95 % 0 in /  0.0 mm 35 W/m2
13:00 55.6 °F /  13.1 °C 54.1 °F /  12.3 °C 29.8 in /  1008.0 hPa SW 7 mph /  11.3 km/h 26 mph /  41.8 km/h 95 % 0 in /  0.0 mm 49 W/m2
13:05 55.6 °F /  13.1 °C 54.1 °F /  12.3 °C 29.8 in /  1008.0 hPa West 25 mph /  40.2 km/h 26 mph /  41.8 km/h 95 % 0 in /  0.0 mm 47 W/m2
13:15 55.4 °F /  13.0 °C 53.8 °F /  12.1 °C 29.8 in /  1008.0 hPa West 8 mph /  12.9 km/h 29 mph /  46.7 km/h 94 % 0 in /  0.0 mm 49 W/m2
13:20 55.4 °F /  13.0 °C 53.8 °F /  12.1 °C 29.8 in /  1007.7 hPa West 16 mph /  25.7 km/h 29 mph /  46.7 km/h 94 % 0 in /  0.0 mm 54 W/m2
13:25 55.2 °F /  12.9 °C 53.6 °F /  12.0 °C 29.8 in /  1007.7 hPa WSW 15 mph /  24.1 km/h 28 mph /  45.1 km/h 94 % 0 in /  0.0 mm 51 W/m2
13:30 55.2 °F /  12.9 °C 53.6 °F /  12.0 °C 29.7 in /  1007.3 hPa West 12 mph /  19.3 km/h 24 mph /  38.6 km/h 94 % 0 in /  0.0 mm 46 W/m2
13:35 55.4 °F /  13.0 °C 53.8 °F /  12.1 °C 29.8 in /  1007.7 hPa WSW 14 mph /  22.5 km/h 26 mph /  41.8 km/h 94 % 0 in /  0.0 mm 35 W/m2
13:40 55.2 °F /  12.9 °C 53.6 °F /  12.0 °C 29.8 in /  1007.7 hPa West 11 mph /  17.7 km/h 27 mph /  43.4 km/h 94 % 0 in /  0.0 mm 37 W/m2
13:45 55.2 °F /  12.9 °C 53.6 °F /  12.0 °C 29.8 in /  1007.7 hPa West 13 mph /  20.9 km/h 27 mph /  43.4 km/h 94 % 0 in /  0.0 mm 37 W/m2
13:50 55.2 °F /  12.9 °C 53.6 °F /  12.0 °C 29.7 in /  1007.3 hPa West 12 mph /  19.3 km/h 23 mph /  37.0 km/h 94 % 0 in /  0.0 mm 49 W/m2
13:55 55.2 °F /  12.9 °C 53.6 °F /  12.0 °C 29.7 in /  1007.3 hPa WNW 9 mph /  14.5 km/h 29 mph /  46.7 km/h 94 % 0 in /  0.0 mm 42 W/m2
14:00 55.2 °F /  12.9 °C 53.6 °F /  12.0 °C 29.7 in /  1007.3 hPa WSW 19 mph /  30.6 km/h 29 mph /  46.7 km/h 94 % 0 in /  0.0 mm 39 W/m2
14:05 55.2 °F /  12.9 °C 53.8 °F /  12.1 °C 29.7 in /  1007.3 hPa SW 12 mph /  19.3 km/h 27 mph /  43.4 km/h 95 % 0 in /  0.0 mm 39 W/m2
14:10 55.2 °F /  12.9 °C 53.8 °F /  12.1 °C 29.7 in /  1007.0 hPa WSW 22 mph /  35.4 km/h 25 mph /  40.2 km/h 95 % 0 in /  0.0 mm 32 W/m2
14:15 55.2 °F /  12.9 °C 53.8 °F /  12.1 °C 29.7 in /  1007.0 hPa WSW 17 mph /  27.4 km/h 25 mph /  40.2 km/h 95 % 0 in /  0.0 mm 37 W/m2
14:20 55 °F /  12.8 °C 53.8 °F /  12.1 °C 29.7 in /  1007.0 hPa WSW 8 mph /  12.9 km/h 29 mph /  46.7 km/h 95 % 0 in /  0.0 mm 37 W/m2
14:25 55 °F /  12.8 °C 53.8 °F /  12.1 °C 29.7 in /  1007.0 hPa SW 10 mph /  16.1 km/h 29 mph /  46.7 km/h 95 % 0.02 in /  0.5 mm 37 W/m2
14:30 55 °F /  12.8 °C 53.6 °F /  12.0 °C 29.7 in /  1007.0 hPa NW 13 mph /  20.9 km/h 27 mph /  43.4 km/h 95 % 0.02 in /  0.5 mm 25 W/m2
14:35 54.9 °F /  12.7 °C 53.4 °F /  11.9 °C 29.7 in /  1007.3 hPa WNW 8 mph /  12.9 km/h 27 mph /  43.4 km/h 95 % 0.02 in /  0.5 mm 9 W/m2
14:45 53.4 °F /  11.9 °C 51.8 °F /  11.0 °C 29.7 in /  1007.3 hPa WNW 9 mph /  14.5 km/h 23 mph /  37.0 km/h 94 % 0.06 in /  1.5 mm 23 W/m2
14:50 52.9 °F /  11.6 °C 51.1 °F /  10.6 °C 29.7 in /  1007.3 hPa WNW 5 mph /  8.0 km/h 22 mph /  35.4 km/h 94 % 0.06 in /  1.5 mm 44 W/m2
15:00 52.2 °F /  11.2 °C 50.5 °F /  10.3 °C 29.7 in /  1007.3 hPa WNW 5 mph /  8.0 km/h 14 mph /  22.5 km/h 94 % 0.06 in /  1.5 mm 47 W/m2
15:05 52 °F /  11.1 °C 50.5 °F /  10.3 °C 29.7 in /  1007.3 hPa NW 7 mph /  11.3 km/h 18 mph /  29.0 km/h 95 % 0.06 in /  1.5 mm 44 W/m2
15:10 52 °F /  11.1 °C 50.5 °F /  10.3 °C 29.7 in /  1007.3 hPa WNW 6 mph /  9.7 km/h 20 mph /  32.2 km/h 95 % 0.06 in /  1.5 mm 39 W/m2
15:15 51.8 °F /  11.0 °C 50.4 °F /  10.2 °C 29.7 in /  1007.3 hPa WNW 8 mph /  12.9 km/h 20 mph /  32.2 km/h 95 % 0.06 in /  1.5 mm 35 W/m2
15:20 51.6 °F /  10.9 °C 50.4 °F /  10.2 °C 29.7 in /  1007.3 hPa West 9 mph /  14.5 km/h 17 mph /  27.4 km/h 95 % 0.06 in /  1.5 mm 51 W/m2
15:30 51.4 °F /  10.8 °C 50.2 °F /  10.1 °C 29.7 in /  1007.3 hPa West 12 mph /  19.3 km/h 15 mph /  24.1 km/h 95 % 0.06 in /  1.5 mm 47 W/m2
15:35 51.4 °F /  10.8 °C 50.2 °F /  10.1 °C 29.7 in /  1007.3 hPa West 11 mph /  17.7 km/h 15 mph /  24.1 km/h 95 % 0.05 in /  1.3 mm 56 W/m2
15:40 51.4 °F /  10.8 °C 50.2 °F /  10.1 °C 29.7 in /  1007.3 hPa WNW 5 mph /  8.0 km/h 14 mph /  22.5 km/h 95 % 0.02 in /  0.5 mm 49 W/m2
15:45 51.4 °F /  10.8 °C 50.2 °F /  10.1 °C 29.7 in /  1007.3 hPa NW 2 mph /  3.2 km/h 17 mph /  27.4 km/h 95 % 0.02 in /  0.5 mm 54 W/m2
15:50 51.4 °F /  10.8 °C 50 °F /  10.0 °C 29.7 in /  1007.3 hPa West 5 mph /  8.0 km/h 17 mph /  27.4 km/h 95 % 0.02 in /  0.5 mm 46 W/m2
16:00 51.4 °F /  10.8 °C 50 °F /  10.0 °C 29.7 in /  1007.3 hPa NW 5 mph /  8.0 km/h 14 mph /  22.5 km/h 95 % 0.02 in /  0.5 mm 37 W/m2
16:05 51.4 °F /  10.8 °C 50 °F /  10.0 °C 29.7 in /  1007.3 hPa West 4 mph /  6.4 km/h 14 mph /  22.5 km/h 95 % 0.01 in /  0.3 mm 39 W/m2
16:15 51.4 °F /  10.8 °C 50.4 °F /  10.2 °C 29.7 in /  1007.3 hPa WNW 3 mph /  4.8 km/h 14 mph /  22.5 km/h 96 % 0.01 in /  0.3 mm 35 W/m2
16:20 51.3 °F /  10.7 °C 50.2 °F /  10.1 °C 29.7 in /  1007.3 hPa West 7 mph /  11.3 km/h 12 mph /  19.3 km/h 96 % 0.01 in /  0.3 mm 23 W/m2
16:25 51.3 °F /  10.7 °C 50.2 °F /  10.1 °C 29.7 in /  1007.3 hPa West 6 mph /  9.7 km/h 12 mph /  19.3 km/h 96 % 0 in /  0.0 mm 28 W/m2
16:40 51.3 °F /  10.7 °C 50.2 °F /  10.1 °C 29.7 in /  1007.3 hPa West 6 mph /  9.7 km/h 16 mph /  25.7 km/h 96 % 0.01 in /  0.3 mm 23 W/m2
16:55 51.1 °F /  10.6 °C 50 °F /  10.0 °C 29.7 in /  1007.3 hPa West 3 mph /  4.8 km/h 13 mph /  20.9 km/h 96 % 0.01 in /  0.3 mm 25 W/m2
17:00 51.1 °F /  10.6 °C 49.8 °F /  9.9 °C 29.7 in /  1007.3 hPa West 5 mph /  8.0 km/h 13 mph /  20.9 km/h 96 % 0.01 in /  0.3 mm 19 W/m2
17:05 51.1 °F /  10.6 °C 49.8 °F /  9.9 °C 29.8 in /  1007.7 hPa West 3 mph /  4.8 km/h 13 mph /  20.9 km/h 96 % 0.01 in /  0.3 mm 23 W/m2
17:10 50.7 °F /  10.4 °C 49.6 °F /  9.8 °C 29.8 in /  1007.7 hPa WNW 5 mph /  8.0 km/h 11 mph /  17.7 km/h 96 % 0.01 in /  0.3 mm 19 W/m2
17:15 50.5 °F /  10.3 °C 49.5 °F /  9.7 °C 29.8 in /  1007.7 hPa WNW 6 mph /  9.7 km/h 11 mph /  17.7 km/h 96 % 0.01 in /  0.3 mm 14 W/m2
17:30 50.4 °F /  10.2 °C 49.3 °F /  9.6 °C 29.7 in /  1007.3 hPa WSW 6 mph /  9.7 km/h 10 mph /  16.1 km/h 96 % 0 in /  0.0 mm 5 W/m2
17:35 50.4 °F /  10.2 °C 49.3 °F /  9.6 °C 29.8 in /  1007.7 hPa WSW 7 mph /  11.3 km/h 10 mph /  16.1 km/h 96 % 0 in /  0.0 mm 0 W/m2
17:50 50.4 °F /  10.2 °C 49.3 °F /  9.6 °C 29.8 in /  1008.0 hPa WSW 2 mph /  3.2 km/h 12 mph /  19.3 km/h 96 % 0 in /  0.0 mm 0 W/m2
18:00 50.5 °F /  10.3 °C 49.5 °F /  9.7 °C 29.8 in /  1008.4 hPa WSW 9 mph /  14.5 km/h 13 mph /  20.9 km/h 96 % 0 in /  0.0 mm 0 W/m2
18:25 50.7 °F /  10.4 °C 50 °F /  10.0 °C 29.8 in /  1008.0 hPa West 4 mph /  6.4 km/h 13 mph /  20.9 km/h 97 % 0 in /  0.0 mm 0 W/m2
18:35 50.7 °F /  10.4 °C 49.6 °F /  9.8 °C 29.8 in /  1008.0 hPa WSW 6 mph /  9.7 km/h 12 mph /  19.3 km/h 96 % 0 in /  0.0 mm 0 W/m2
18:40 50.7 °F /  10.4 °C 49.6 °F /  9.8 °C 29.8 in /  1008.0 hPa WNW 5 mph /  8.0 km/h 14 mph /  22.5 km/h 96 % 0 in /  0.0 mm 0 W/m2
18:50 50.5 °F /  10.3 °C 49.8 °F /  9.9 °C 29.8 in /  1008.0 hPa West 4 mph /  6.4 km/h 15 mph /  24.1 km/h 97 % 0 in /  0.0 mm 0 W/m2
18:55 50.5 °F /  10.3 °C 49.8 °F /  9.9 °C 29.8 in /  1008.0 hPa WNW 6 mph /  9.7 km/h 15 mph /  24.1 km/h 97 % 0 in /  0.0 mm 0 W/m2
19:05 50.5 °F /  10.3 °C 49.8 °F /  9.9 °C 29.8 in /  1008.0 hPa West 7 mph /  11.3 km/h 10 mph /  16.1 km/h 97 % 0 in /  0.0 mm 0 W/m2
19:10 50.7 °F /  10.4 °C 49.8 °F /  9.9 °C 29.8 in /  1008.0 hPa WSW 2 mph /  3.2 km/h 11 mph /  17.7 km/h 97 % 0 in /  0.0 mm 0 W/m2
19:20 51.1 °F /  10.6 °C 50.2 °F /  10.1 °C 29.8 in /  1008.0 hPa WSW 8 mph /  12.9 km/h 12 mph /  19.3 km/h 97 % 0 in /  0.0 mm 0 W/m2
19:25 51.1 °F /  10.6 °C 50.2 °F /  10.1 °C 29.8 in /  1008.0 hPa WSW 11 mph /  17.7 km/h 12 mph /  19.3 km/h 97 % 0 in /  0.0 mm 0 W/m2
19:30 51.3 °F /  10.7 °C 50.4 °F /  10.2 °C 29.8 in /  1008.0 hPa SW 8 mph /  12.9 km/h 12 mph /  19.3 km/h 97 % 0 in /  0.0 mm 0 W/m2
19:35 51.3 °F /  10.7 °C 50.4 °F /  10.2 °C 29.8 in /  1008.0 hPa West 5 mph /  8.0 km/h 15 mph /  24.1 km/h 97 % 0 in /  0.0 mm 0 W/m2
19:45 51.4 °F /  10.8 °C 50.5 °F /  10.3 °C 29.8 in /  1008.0 hPa WSW 5 mph /  8.0 km/h 17 mph /  27.4 km/h 97 % 0 in /  0.0 mm 0 W/m2
20:00 51.4 °F /  10.8 °C 50.7 °F /  10.4 °C 29.8 in /  1007.7 hPa WSW 7 mph /  11.3 km/h 13 mph /  20.9 km/h 97 % 0 in /  0.0 mm 0 W/m2
20:05 51.4 °F /  10.8 °C 50.7 °F /  10.4 °C 29.8 in /  1008.0 hPa WNW 4 mph /  6.4 km/h 14 mph /  22.5 km/h 97 % 0 in /  0.0 mm 0 W/m2
20:10 51.4 °F /  10.8 °C 50.7 °F /  10.4 °C 29.8 in /  1007.7 hPa West 6 mph /  9.7 km/h 14 mph /  22.5 km/h 97 % 0 in /  0.0 mm 0 W/m2
20:25 51.4 °F /  10.8 °C 50.7 °F /  10.4 °C 29.8 in /  1007.7 hPa West 4 mph /  6.4 km/h 13 mph /  20.9 km/h 97 % 0 in /  0.0 mm 0 W/m2
20:30 51.4 °F /  10.8 °C 50.7 °F /  10.4 °C 29.8 in /  1007.7 hPa SW 7 mph /  11.3 km/h 13 mph /  20.9 km/h 97 % 0 in /  0.0 mm 0 W/m2
20:45 51.4 °F /  10.8 °C 50.7 °F /  10.4 °C 29.7 in /  1007.3 hPa WSW 4 mph /  6.4 km/h 13 mph /  20.9 km/h 97 % 0 in /  0.0 mm 0 W/m2
20:55 51.4 °F /  10.8 °C 50.7 °F /  10.4 °C 29.7 in /  1007.3 hPa SW 4 mph /  6.4 km/h 14 mph /  22.5 km/h 97 % 0 in /  0.0 mm 0 W/m2
21:10 51.3 °F /  10.7 °C 50.5 °F /  10.3 °C 29.7 in /  1007.3 hPa WSW 4 mph /  6.4 km/h 13 mph /  20.9 km/h 97 % 0 in /  0.0 mm 0 W/m2
21:20 51.4 °F /  10.8 °C 50.5 °F /  10.3 °C 29.7 in /  1007.3 hPa SSW 3 mph /  4.8 km/h 12 mph /  19.3 km/h 97 % 0 in /  0.0 mm 0 W/m2
21:25 51.4 °F /  10.8 °C 50.5 °F /  10.3 °C 29.7 in /  1007.3 hPa SW 1 mph /  1.6 km/h 12 mph /  19.3 km/h 97 % 0 in /  0.0 mm 0 W/m2
21:40 51.4 °F /  10.8 °C 50.5 °F /  10.3 °C 29.7 in /  1007.0 hPa SW 2 mph /  3.2 km/h 9 mph /  14.5 km/h 97 % 0 in /  0.0 mm 0 W/m2
21:45 51.3 °F /  10.7 °C 50.5 °F /  10.3 °C 29.7 in /  1006.7 hPa WSW 4 mph /  6.4 km/h 14 mph /  22.5 km/h 97 % 0 in /  0.0 mm 0 W/m2
21:50 51.3 °F /  10.7 °C 50.5 °F /  10.3 °C 29.7 in /  1006.7 hPa WSW 10 mph /  16.1 km/h 14 mph /  22.5 km/h 97 % 0 in /  0.0 mm 0 W/m2
21:55 51.4 °F /  10.8 °C 50.5 °F /  10.3 °C 29.7 in /  1006.7 hPa WSW 9 mph /  14.5 km/h 13 mph /  20.9 km/h 97 % 0 in /  0.0 mm 0 W/m2
22:45 51.6 °F /  10.9 °C 50.9 °F /  10.5 °C 29.7 in /  1006.3 hPa West 5 mph /  8.0 km/h 16 mph /  25.7 km/h 97 % 0 in /  0.0 mm 0 W/m2
23:15 51.8 °F /  11.0 °C 50.9 °F /  10.5 °C 29.7 in /  1005.6 hPa SW 6 mph /  9.7 km/h 16 mph /  25.7 km/h 97 % 0 in /  0.0 mm 0 W/m2
23:20 51.8 °F /  11.0 °C 50.9 °F /  10.5 °C 29.7 in /  1005.6 hPa WSW 6 mph /  9.7 km/h 16 mph /  25.7 km/h 97 % 0 in /  0.0 mm 0 W/m2
23:35 52 °F /  11.1 °C 51.1 °F /  10.6 °C 29.7 in /  1005.3 hPa SSW 5 mph /  8.0 km/h 18 mph /  29.0 km/h 97 % 0 in /  0.0 mm 0 W/m2
23:40 52 °F /  11.1 °C 51.3 °F /  10.7 °C 29.7 in /  1005.3 hPa WSW 3 mph /  4.8 km/h 16 mph /  25.7 km/h 97 % 0 in /  0.0 mm 0 W/m2
23:45 52 °F /  11.1 °C 51.3 °F /  10.7 °C 29.7 in /  1005.3 hPa WSW 8 mph /  12.9 km/h 16 mph /  25.7 km/h 97 % 0 in /  0.0 mm 0 W/m2
Avec l'autorisation de Weather Underground - 1.25 mb